Main page
METAR-TAF:

METAR-TAF

Airports :

Lille Airport

Lille, France

latitude: 50-34N, longitude: 003-06E, elevation: 48 m

Current weather observation

The report was made 29 minutes ago, at 19:30 UTC
Wind 5 kt from the West
Temperature 5°C
Humidity 87%
Pressure 1037 hPa
Visibility: 9000 m
Overcast at a height of 1700 ft

METAR: LFQQ 221930Z AUTO 26005KT 9000 OVC017 05/03 Q1037 BECMG OVC012

Time: 20:59 (19:59 UTC)

Forecast

The report was made 2 hours and 59 minutes ago, at 17:00 UTC
Forecast valid from 22 at 18 UTC to 23 at 24 UTC
Wind 3 kt from variable directions
Visibility: 8000 m
Overcast at a height of 1200 ft
Temporary
from 22 at 18 UTC to 23 at 24 UTC
Broken clouds at a height of 1700 ft

TAF: LFQQ 221700Z 2218/2324 VRB03KT 8000 OVC012 TEMPO 2218/2324 BKN017

Weather observations and forecasts of more than 4000 airports (METAR and TAF reports).

The available stations are represented by yellow and red dots on the map.

Hover mouse over dot to see the name of the station.

Then click to see weather observations and forecasts.

To change the map : click on the green buttons with a black cross to zoom in, on the green button with a dash to zoom out, or on the green arrows for adjacent maps.


METAR-TAF: